Forside
METAR-TAF:

METAR-TAF

Lufthavne :

Elko, Nevada, USA

Breddekreds: 40-49-30N, længdekreds: 115-47-30W, højde: 1568 m

Aktuelle vejr

Denne rapport blev lavet for 42 minutter siden, kl. 07:56 UTC
Vind stille
Temperatur -4°C
Fugtighed 74%
Tryk 1021 hPa
Sigt: 16.1 km
skyfri

METAR: KEKO 220756Z AUTO 00000KT 10SM CLR M04/M08 A3016 RMK AO2 SLP229 T10441083 401171083

Tid: 00:38 (08:38 UTC)

Vejrudsigter

Denne rapport blev lavet for 3 timer og 7 minutter siden, kl. 05:31 UTC
Foreløbig gælder fra 22 på 06 UTC til 23 på 06 UTC
Vind 3 kt fra østnordøst
Sigt: 10 km
Nogle få skyer i en højde af 10000 ft
Spredte skyer i en højde af 20000 ft
Fra 22 på 1200 UTC
Vind 6 kt fra varierende retninger
Sigt: 10 km
Spredte skyer i en højde af 7000 ft
Brudte skyer i en højde af 10000 ft
Fra 22 på 2200 UTC
Vind 6 kt fra nordøst
Sigt: 10 km
Spredte skyer i en højde af 10000 ft
Brudte skyer i en højde af 25000 ft

TAF: KEKO 220531Z 2206/2306 06003KT P6SM FEW100 SCT200 FM221200 VRB06KT P6SM SCT070 BKN100 FM222200 04006KT P6SM SCT100 BKN250

Vejrobservationer og prognoser fra mere end 4000 lufthavne (METAR og TAF).

De gule og røde prikker repræsenterer de meteorologiske stationer.

Flyt musen over at se navnet på stationen.

Så klik over at se vejr observationer og prognoser.

At skifte det kort: Klik på de grønne knapper med et sort kors for at zoome ind; på den grønne knap med en bindestreg for at zoome ud; eller på de grønne pile for tilstødende kort.


METAR-TAF: